YTWN weather

Tooraweenah Airport
New South Wales, Australia

Public forecast

Using degrees Celsius for public forecast. Weather courtesy of forecast.io.

METAR (pilot weather report)

Closest report is Coonabarabran Airport, 19.9 nm (36.9 km) ENE. Retrieved 2019/07/21 09:00 UTC (46 minutes ago):

YCBB 210900Z AUTO 36005KT 9999 // NCD 13/01 Q1017

TAF (pilot weather forecast)

Closest forecast is Dubbo City Regional Airport, 49.4 nm (91.5 km) SSW. Retrieved 2019/07/21 06:36 UTC (3 hours ago):

TAF YSDU 210527Z 2106/2124 34012KT CAVOK FM211000 02006KT CAVOK